sensor_id;sensor_type;location;lat;lon;timestamp;temperature;humidity
14487;DHT22;7329;50.866;4.366;2022-11-22T00:00:32;18.60;99.90
14487;DHT22;7329;50.866;4.366;2022-11-22T00:02:35;18.60;99.90
14487;DHT22;7329;50.866;4.366;2022-11-22T00:04:37;18.60;99.90
14487;DHT22;7329;50.866;4.366;2022-11-22T00:06:40;18.60;99.90
14487;DHT22;7329;50.866;4.366;2022-11-22T00:08:43;18.60;99.90
14487;DHT22;7329;50.866;4.366;2022-11-22T00:10:47;18.60;99.90
14487;DHT22;7329;50.866;4.366;2022-11-22T00:12:49;18.60;99.90
14487;DHT22;7329;50.866;4.366;2022-11-22T00:14:51;18.50;99.90
14487;DHT22;7329;50.866;4.366;2022-11-22T00:16:54;18.50;99.90
14487;DHT22;7329;50.866;4.366;2022-11-22T00:18:56;18.50;99.90
14487;DHT22;7329;50.866;4.366;2022-11-22T00:21:04;18.50;99.90
14487;DHT22;7329;50.866;4.366;2022-11-22T00:23:07;18.50;99.90
14487;DHT22;7329;50.866;4.366;2022-11-22T00:25:10;18.50;99.90
14487;DHT22;7329;50.866;4.366;2022-11-22T00:27:13;18.50;99.90
14487;DHT22;7329;50.866;4.366;2022-11-22T00:29:15;18.50;99.90
14487;DHT22;7329;50.866;4.366;2022-11-22T00:31:18;18.50;99.90
14487;DHT22;7329;50.866;4.366;2022-11-22T00:33:20;18.50;99.90
14487;DHT22;7329;50.866;4.366;2022-11-22T00:35:22;18.50;99.90
14487;DHT22;7329;50.866;4.366;2022-11-22T00:37:25;18.50;99.90
14487;DHT22;7329;50.866;4.366;2022-11-22T00:39:27;18.50;99.90
14487;DHT22;7329;50.866;4.366;2022-11-22T00:41:31;18.50;99.90
14487;DHT22;7329;50.866;4.366;2022-11-22T00:43:33;18.40;99.90
14487;DHT22;7329;50.866;4.366;2022-11-22T00:45:35;18.40;99.90
14487;DHT22;7329;50.866;4.366;2022-11-22T00:47:38;18.40;99.90
14487;DHT22;7329;50.866;4.366;2022-11-22T00:49:40;18.40;99.90
14487;DHT22;7329;50.866;4.366;2022-11-22T00:51:42;18.50;99.90
14487;DHT22;7329;50.866;4.366;2022-11-22T00:53:45;18.40;99.90
14487;DHT22;7329;50.866;4.366;2022-11-22T00:55:47;18.40;99.90
14487;DHT22;7329;50.866;4.366;2022-11-22T00:57:51;18.40;99.90
14487;DHT22;7329;50.866;4.366;2022-11-22T00:59:53;18.40;99.90
14487;DHT22;7329;50.866;4.366;2022-11-22T01:01:56;18.40;99.90
14487;DHT22;7329;50.866;4.366;2022-11-22T01:03:59;18.40;99.90
14487;DHT22;7329;50.866;4.366;2022-11-22T01:06:01;18.40;99.90
14487;DHT22;7329;50.866;4.366;2022-11-22T01:08:03;18.40;99.90
14487;DHT22;7329;50.866;4.366;2022-11-22T01:10:07;18.40;99.90
14487;DHT22;7329;50.866;4.366;2022-11-22T01:12:09;18.30;99.90
14487;DHT22;7329;50.866;4.366;2022-11-22T01:14:13;18.30;99.90
14487;DHT22;7329;50.866;4.366;2022-11-22T01:16:15;18.40;99.90
14487;DHT22;7329;50.866;4.366;2022-11-22T01:18:18;18.40;99.90
14487;DHT22;7329;50.866;4.366;2022-11-22T01:20:20;18.40;99.90
14487;DHT22;7329;50.866;4.366;2022-11-22T01:22:22;18.30;99.90
14487;DHT22;7329;50.866;4.366;2022-11-22T01:24:26;18.30;99.90
14487;DHT22;7329;50.866;4.366;2022-11-22T01:26:29;18.30;99.90
14487;DHT22;7329;50.866;4.366;2022-11-22T01:28:31;18.30;99.90
14487;DHT22;7329;50.866;4.366;2022-11-22T01:30:34;18.30;99.90
14487;DHT22;7329;50.866;4.366;2022-11-22T01:32:37;18.30;99.90
14487;DHT22;7329;50.866;4.366;2022-11-22T01:34:39;18.30;99.90
14487;DHT22;7329;50.866;4.366;2022-11-22T01:36:42;18.30;99.90
14487;DHT22;7329;50.866;4.366;2022-11-22T01:38:44;18.30;99.90
14487;DHT22;7329;50.866;4.366;2022-11-22T01:40:46;18.30;99.90
14487;DHT22;7329;50.866;4.366;2022-11-22T01:42:51;18.20;99.90
14487;DHT22;7329;50.866;4.366;2022-11-22T01:44:53;18.20;99.90
14487;DHT22;7329;50.866;4.366;2022-11-22T01:46:59;18.20;99.90
14487;DHT22;7329;50.866;4.366;2022-11-22T01:49:04;18.20;99.90
14487;DHT22;7329;50.866;4.366;2022-11-22T01:51:16;18.20;99.90
14487;DHT22;7329;50.866;4.366;2022-11-22T01:53:23;18.20;99.90
14487;DHT22;7329;50.866;4.366;2022-11-22T01:55:26;18.20;99.90
14487;DHT22;7329;50.866;4.366;2022-11-22T01:57:31;18.20;99.90
14487;DHT22;7329;50.866;4.366;2022-11-22T01:59:36;18.20;99.90
14487;DHT22;7329;50.866;4.366;2022-11-22T02:01:40;18.20;99.90
14487;DHT22;7329;50.866;4.366;2022-11-22T02:03:46;18.20;99.90
14487;DHT22;7329;50.866;4.366;2022-11-22T02:05:51;18.20;99.90
14487;DHT22;7329;50.866;4.366;2022-11-22T02:07:58;18.20;99.90
14487;DHT22;7329;50.866;4.366;2022-11-22T02:10:02;18.20;99.90
14487;DHT22;7329;50.866;4.366;2022-11-22T02:12:05;18.10;99.90
14487;DHT22;7329;50.866;4.366;2022-11-22T02:14:10;18.20;99.90
14487;DHT22;7329;50.866;4.366;2022-11-22T02:16:13;18.20;99.90
14487;DHT22;7329;50.866;4.366;2022-11-22T02:18:16;18.20;99.90
14487;DHT22;7329;50.866;4.366;2022-11-22T02:20:19;18.20;99.90
14487;DHT22;7329;50.866;4.366;2022-11-22T02:22:28;18.10;99.90
14487;DHT22;7329;50.866;4.366;2022-11-22T02:24:36;18.20;99.90
14487;DHT22;7329;50.866;4.366;2022-11-22T02:26:42;18.10;99.90
14487;DHT22;7329;50.866;4.366;2022-11-22T02:28:44;18.10;99.90
14487;DHT22;7329;50.866;4.366;2022-11-22T02:30:46;18.10;99.90
14487;DHT22;7329;50.866;4.366;2022-11-22T02:32:49;18.10;99.90
14487;DHT22;7329;50.866;4.366;2022-11-22T02:34:51;18.10;99.90
14487;DHT22;7329;50.866;4.366;2022-11-22T02:36:54;18.10;99.90
14487;DHT22;7329;50.866;4.366;2022-11-22T02:38:57;18.10;99.90
14487;DHT22;7329;50.866;4.366;2022-11-22T02:41:01;18.00;99.90
14487;DHT22;7329;50.866;4.366;2022-11-22T02:43:09;18.10;99.90
14487;DHT22;7329;50.866;4.366;2022-11-22T02:45:12;18.10;99.90
14487;DHT22;7329;50.866;4.366;2022-11-22T02:47:15;18.10;99.90
14487;DHT22;7329;50.866;4.366;2022-11-22T02:49:18;18.00;99.90
14487;DHT22;7329;50.866;4.366;2022-11-22T02:51:21;18.00;99.90
14487;DHT22;7329;50.866;4.366;2022-11-22T02:53:24;18.00;99.90
14487;DHT22;7329;50.866;4.366;2022-11-22T02:55:26;18.00;99.90
14487;DHT22;7329;50.866;4.366;2022-11-22T02:57:29;18.00;99.90
14487;DHT22;7329;50.866;4.366;2022-11-22T02:59:33;18.00;99.90
14487;DHT22;7329;50.866;4.366;2022-11-22T03:01:35;18.00;99.90
14487;DHT22;7329;50.866;4.366;2022-11-22T03:03:37;18.00;99.90
14487;DHT22;7329;50.866;4.366;2022-11-22T03:05:40;18.00;99.90
14487;DHT22;7329;50.866;4.366;2022-11-22T03:07:42;18.00;99.90
14487;DHT22;7329;50.866;4.366;2022-11-22T03:09:44;18.00;99.90
14487;DHT22;7329;50.866;4.366;2022-11-22T03:11:47;18.00;99.90
14487;DHT22;7329;50.866;4.366;2022-11-22T03:13:49;18.00;99.90
14487;DHT22;7329;50.866;4.366;2022-11-22T03:15:53;18.00;99.90
14487;DHT22;7329;50.866;4.366;2022-11-22T03:17:59;17.90;99.90
14487;DHT22;7329;50.866;4.366;2022-11-22T03:20:02;18.00;99.90
14487;DHT22;7329;50.866;4.366;2022-11-22T03:22:04;17.90;99.90
14487;DHT22;7329;50.866;4.366;2022-11-22T03:24:07;17.90;99.90
14487;DHT22;7329;50.866;4.366;2022-11-22T03:26:10;17.90;99.90
14487;DHT22;7329;50.866;4.366;2022-11-22T03:28:13;17.90;99.90
14487;DHT22;7329;50.866;4.366;2022-11-22T03:30:16;17.90;99.90
14487;DHT22;7329;50.866;4.366;2022-11-22T03:32:20;17.90;99.90
14487;DHT22;7329;50.866;4.366;2022-11-22T03:34:22;17.90;99.90
14487;DHT22;7329;50.866;4.366;2022-11-22T03:36:24;17.90;99.90
14487;DHT22;7329;50.866;4.366;2022-11-22T03:38:27;17.90;99.90
14487;DHT22;7329;50.866;4.366;2022-11-22T03:40:29;17.90;99.90
14487;DHT22;7329;50.866;4.366;2022-11-22T03:42:31;17.90;99.90
14487;DHT22;7329;50.866;4.366;2022-11-22T03:44:34;17.90;99.90
14487;DHT22;7329;50.866;4.366;2022-11-22T03:46:36;17.90;99.90
14487;DHT22;7329;50.866;4.366;2022-11-22T03:48:40;17.90;99.90
14487;DHT22;7329;50.866;4.366;2022-11-22T03:50:42;17.80;99.90
14487;DHT22;7329;50.866;4.366;2022-11-22T03:52:45;17.80;99.90
14487;DHT22;7329;50.866;4.366;2022-11-22T03:54:47;17.90;99.90
14487;DHT22;7329;50.866;4.366;2022-11-22T03:56:49;17.80;99.90
14487;DHT22;7329;50.866;4.366;2022-11-22T03:58:53;17.80;99.90
14487;DHT22;7329;50.866;4.366;2022-11-22T04:00:55;17.80;99.90
14487;DHT22;7329;50.866;4.366;2022-11-22T04:02:58;17.80;99.90
14487;DHT22;7329;50.866;4.366;2022-11-22T04:05:02;17.80;99.90
14487;DHT22;7329;50.866;4.366;2022-11-22T04:07:04;17.80;99.90
14487;DHT22;7329;50.866;4.366;2022-11-22T04:09:06;17.80;99.90
14487;DHT22;7329;50.866;4.366;2022-11-22T04:11:09;17.80;99.90
14487;DHT22;7329;50.866;4.366;2022-11-22T04:13:12;17.80;99.90
14487;DHT22;7329;50.866;4.366;2022-11-22T04:15:14;17.80;99.90
14487;DHT22;7329;50.866;4.366;2022-11-22T04:17:16;17.80;99.90
14487;DHT22;7329;50.866;4.366;2022-11-22T04:19:39;17.80;99.90
14487;DHT22;7329;50.866;4.366;2022-11-22T04:22:04;17.80;99.90
14487;DHT22;7329;50.866;4.366;2022-11-22T04:24:07;17.80;99.90
14487;DHT22;7329;50.866;4.366;2022-11-22T04:26:27;17.70;99.90
14487;DHT22;7329;50.866;4.366;2022-11-22T04:28:29;17.80;99.90
14487;DHT22;7329;50.866;4.366;2022-11-22T04:30:32;17.70;99.90
14487;DHT22;7329;50.866;4.366;2022-11-22T04:32:52;17.70;99.90
14487;DHT22;7329;50.866;4.366;2022-11-22T04:34:54;17.70;99.90
14487;DHT22;7329;50.866;4.366;2022-11-22T04:36:57;17.70;99.90
14487;DHT22;7329;50.866;4.366;2022-11-22T04:39:00;17.70;99.90
14487;DHT22;7329;50.866;4.366;2022-11-22T04:41:03;17.70;99.90
14487;DHT22;7329;50.866;4.366;2022-11-22T04:43:06;17.70;99.90
14487;DHT22;7329;50.866;4.366;2022-11-22T04:45:26;17.70;99.90
14487;DHT22;7329;50.866;4.366;2022-11-22T04:47:28;17.70;99.90
14487;DHT22;7329;50.866;4.366;2022-11-22T04:49:48;17.70;99.90
14487;DHT22;7329;50.866;4.366;2022-11-22T04:51:50;17.70;99.90
14487;DHT22;7329;50.866;4.366;2022-11-22T04:54:11;17.70;99.90
14487;DHT22;7329;50.866;4.366;2022-11-22T04:56:13;17.70;99.90
14487;DHT22;7329;50.866;4.366;2022-11-22T04:58:16;17.70;99.90
14487;DHT22;7329;50.866;4.366;2022-11-22T05:00:18;17.70;99.90
14487;DHT22;7329;50.866;4.366;2022-11-22T05:02:21;17.70;99.90
14487;DHT22;7329;50.866;4.366;2022-11-22T05:04:23;17.70;99.90
14487;DHT22;7329;50.866;4.366;2022-11-22T05:06:25;17.70;99.90
14487;DHT22;7329;50.866;4.366;2022-11-22T05:08:28;17.70;99.90
14487;DHT22;7329;50.866;4.366;2022-11-22T05:10:32;17.60;99.90
14487;DHT22;7329;50.866;4.366;2022-11-22T05:12:54;17.60;99.90
14487;DHT22;7329;50.866;4.366;2022-11-22T05:14:57;17.60;99.90
14487;DHT22;7329;50.866;4.366;2022-11-22T05:16:59;17.60;99.90
14487;DHT22;7329;50.866;4.366;2022-11-22T05:19:01;17.60;99.90
14487;DHT22;7329;50.866;4.366;2022-11-22T05:21:04;17.60;99.90
14487;DHT22;7329;50.866;4.366;2022-11-22T05:23:07;17.60;99.90
14487;DHT22;7329;50.866;4.366;2022-11-22T05:25:27;17.60;99.90
14487;DHT22;7329;50.866;4.366;2022-11-22T05:27:31;17.70;99.90
14487;DHT22;7329;50.866;4.366;2022-11-22T05:29:33;17.60;99.90
14487;DHT22;7329;50.866;4.366;2022-11-22T05:31:37;17.70;99.90
14487;DHT22;7329;50.866;4.366;2022-11-22T05:33:41;17.60;99.90
14487;DHT22;7329;50.866;4.366;2022-11-22T05:35:44;17.60;99.90
14487;DHT22;7329;50.866;4.366;2022-11-22T05:37:47;17.60;99.90
14487;DHT22;7329;50.866;4.366;2022-11-22T05:39:49;17.60;99.90
14487;DHT22;7329;50.866;4.366;2022-11-22T05:41:52;17.60;99.90
14487;DHT22;7329;50.866;4.366;2022-11-22T05:43:58;17.60;99.90
14487;DHT22;7329;50.866;4.366;2022-11-22T05:46:04;17.60;99.90
14487;DHT22;7329;50.866;4.366;2022-11-22T05:48:07;17.60;99.90
14487;DHT22;7329;50.866;4.366;2022-11-22T05:50:10;17.60;99.90
14487;DHT22;7329;50.866;4.366;2022-11-22T05:52:12;17.60;99.90
14487;DHT22;7329;50.866;4.366;2022-11-22T05:54:14;17.60;99.90
14487;DHT22;7329;50.866;4.366;2022-11-22T05:56:18;17.50;99.90
14487;DHT22;7329;50.866;4.366;2022-11-22T05:58:21;17.50;99.90
14487;DHT22;7329;50.866;4.366;2022-11-22T06:00:25;17.60;99.90
14487;DHT22;7329;50.866;4.366;2022-11-22T06:02:30;17.60;99.90
14487;DHT22;7329;50.866;4.366;2022-11-22T06:04:32;17.60;99.90
14487;DHT22;7329;50.866;4.366;2022-11-22T06:06:35;17.60;99.90
14487;DHT22;7329;50.866;4.366;2022-11-22T06:08:39;17.60;99.90
14487;DHT22;7329;50.866;4.366;2022-11-22T06:10:43;17.60;99.90
14487;DHT22;7329;50.866;4.366;2022-11-22T06:12:45;17.70;99.90
14487;DHT22;7329;50.866;4.366;2022-11-22T06:14:47;17.70;99.90
14487;DHT22;7329;50.866;4.366;2022-11-22T06:16:51;17.70;99.90
14487;DHT22;7329;50.866;4.366;2022-11-22T06:18:54;17.70;99.90
14487;DHT22;7329;50.866;4.366;2022-11-22T06:20:58;17.70;99.90
14487;DHT22;7329;50.866;4.366;2022-11-22T06:23:00;17.70;99.90
14487;DHT22;7329;50.866;4.366;2022-11-22T06:25:03;17.70;99.90
14487;DHT22;7329;50.866;4.366;2022-11-22T06:27:05;17.70;99.90
14487;DHT22;7329;50.866;4.366;2022-11-22T06:29:08;17.80;99.90
14487;DHT22;7329;50.866;4.366;2022-11-22T06:31:15;17.80;99.90
14487;DHT22;7329;50.866;4.366;2022-11-22T06:33:19;17.80;99.90
14487;DHT22;7329;50.866;4.366;2022-11-22T06:35:21;17.80;99.90
14487;DHT22;7329;50.866;4.366;2022-11-22T06:37:23;17.90;99.90
14487;DHT22;7329;50.866;4.366;2022-11-22T06:39:26;17.90;99.90
14487;DHT22;7329;50.866;4.366;2022-11-22T06:41:31;17.90;99.90
14487;DHT22;7329;50.866;4.366;2022-11-22T06:43:35;17.90;99.90
14487;DHT22;7329;50.866;4.366;2022-11-22T06:45:37;18.00;99.90
14487;DHT22;7329;50.866;4.366;2022-11-22T06:47:40;18.00;99.90
14487;DHT22;7329;50.866;4.366;2022-11-22T06:49:44;18.00;99.90
14487;DHT22;7329;50.866;4.366;2022-11-22T06:51:46;18.00;99.90
14487;DHT22;7329;50.866;4.366;2022-11-22T06:53:49;18.00;99.90
14487;DHT22;7329;50.866;4.366;2022-11-22T06:55:52;18.10;99.90
14487;DHT22;7329;50.866;4.366;2022-11-22T06:57:59;18.10;99.90
14487;DHT22;7329;50.866;4.366;2022-11-22T07:00:03;18.10;99.90
14487;DHT22;7329;50.866;4.366;2022-11-22T07:02:07;18.10;99.90
14487;DHT22;7329;50.866;4.366;2022-11-22T07:04:11;18.20;99.90
14487;DHT22;7329;50.866;4.366;2022-11-22T07:06:16;18.10;99.90
14487;DHT22;7329;50.866;4.366;2022-11-22T07:08:19;18.10;99.90
14487;DHT22;7329;50.866;4.366;2022-11-22T07:10:21;18.20;99.90
14487;DHT22;7329;50.866;4.366;2022-11-22T07:12:24;18.20;99.90
14487;DHT22;7329;50.866;4.366;2022-11-22T07:14:26;18.20;99.90
14487;DHT22;7329;50.866;4.366;2022-11-22T07:16:29;18.20;99.90
14487;DHT22;7329;50.866;4.366;2022-11-22T07:18:32;18.20;99.90
14487;DHT22;7329;50.866;4.366;2022-11-22T07:20:34;18.30;99.90
14487;DHT22;7329;50.866;4.366;2022-11-22T07:22:38;18.30;99.90
14487;DHT22;7329;50.866;4.366;2022-11-22T07:24:40;18.30;99.90
14487;DHT22;7329;50.866;4.366;2022-11-22T07:26:42;18.30;99.90
14487;DHT22;7329;50.866;4.366;2022-11-22T07:28:45;18.30;99.90
14487;DHT22;7329;50.866;4.366;2022-11-22T07:30:48;18.40;99.90
14487;DHT22;7329;50.866;4.366;2022-11-22T07:32:50;18.30;99.90
14487;DHT22;7329;50.866;4.366;2022-11-22T07:34:52;18.40;99.90
14487;DHT22;7329;50.866;4.366;2022-11-22T07:36:55;18.40;99.90
14487;DHT22;7329;50.866;4.366;2022-11-22T07:38:58;18.30;99.90
14487;DHT22;7329;50.866;4.366;2022-11-22T07:41:01;18.40;99.90
14487;DHT22;7329;50.866;4.366;2022-11-22T07:43:03;18.40;99.90
14487;DHT22;7329;50.866;4.366;2022-11-22T07:45:06;18.40;99.90
14487;DHT22;7329;50.866;4.366;2022-11-22T07:47:09;18.40;99.90
14487;DHT22;7329;50.866;4.366;2022-11-22T07:49:11;18.40;99.90
14487;DHT22;7329;50.866;4.366;2022-11-22T07:51:14;18.40;99.90
14487;DHT22;7329;50.866;4.366;2022-11-22T07:53:16;18.40;99.90
14487;DHT22;7329;50.866;4.366;2022-11-22T07:55:20;18.30;99.90
14487;DHT22;7329;50.866;4.366;2022-11-22T07:57:22;18.30;99.90
14487;DHT22;7329;50.866;4.366;2022-11-22T07:59:25;18.40;99.90
14487;DHT22;7329;50.866;4.366;2022-11-22T08:01:27;18.40;99.90
14487;DHT22;7329;50.866;4.366;2022-11-22T08:03:29;18.60;99.90
14487;DHT22;7329;50.866;4.366;2022-11-22T08:05:32;18.60;99.90
14487;DHT22;7329;50.866;4.366;2022-11-22T08:07:34;18.60;99.90
14487;DHT22;7329;50.866;4.366;2022-11-22T08:09:36;18.70;99.90
14487;DHT22;7329;50.866;4.366;2022-11-22T08:11:40;18.70;99.90
14487;DHT22;7329;50.866;4.366;2022-11-22T08:13:42;18.80;99.90
14487;DHT22;7329;50.866;4.366;2022-11-22T08:15:45;18.80;99.90
14487;DHT22;7329;50.866;4.366;2022-11-22T08:17:48;18.90;99.90
14487;DHT22;7329;50.866;4.366;2022-11-22T08:19:51;18.90;99.90
14487;DHT22;7329;50.866;4.366;2022-11-22T08:21:53;18.80;99.90
14487;DHT22;7329;50.866;4.366;2022-11-22T08:23:57;18.80;99.90
14487;DHT22;7329;50.866;4.366;2022-11-22T08:26:00;18.80;99.90
14487;DHT22;7329;50.866;4.366;2022-11-22T08:28:04;18.90;99.90
14487;DHT22;7329;50.866;4.366;2022-11-22T08:30:07;18.90;99.90
14487;DHT22;7329;50.866;4.366;2022-11-22T08:32:09;19.00;99.90
14487;DHT22;7329;50.866;4.366;2022-11-22T08:34:11;19.00;99.90
14487;DHT22;7329;50.866;4.366;2022-11-22T08:36:14;19.00;99.90
14487;DHT22;7329;50.866;4.366;2022-11-22T08:38:16;19.10;99.90
14487;DHT22;7329;50.866;4.366;2022-11-22T08:40:18;19.20;99.90
14487;DHT22;7329;50.866;4.366;2022-11-22T08:42:21;19.20;99.90
14487;DHT22;7329;50.866;4.366;2022-11-22T08:44:25;19.30;99.90
14487;DHT22;7329;50.866;4.366;2022-11-22T08:46:27;19.20;99.90
14487;DHT22;7329;50.866;4.366;2022-11-22T08:48:31;19.30;99.90
14487;DHT22;7329;50.866;4.366;2022-11-22T08:50:34;19.40;99.90
14487;DHT22;7329;50.866;4.366;2022-11-22T08:52:36;19.40;99.90
14487;DHT22;7329;50.866;4.366;2022-11-22T08:54:39;19.40;99.90
14487;DHT22;7329;50.866;4.366;2022-11-22T08:56:41;19.50;99.90
14487;DHT22;7329;50.866;4.366;2022-11-22T08:58:43;19.60;99.90
14487;DHT22;7329;50.866;4.366;2022-11-22T09:00:47;19.60;99.90
14487;DHT22;7329;50.866;4.366;2022-11-22T09:03:00;19.70;99.90
14487;DHT22;7329;50.866;4.366;2022-11-22T09:05:04;19.60;99.90
14487;DHT22;7329;50.866;4.366;2022-11-22T09:07:06;19.60;99.90
14487;DHT22;7329;50.866;4.366;2022-11-22T09:09:08;19.70;99.90
14487;DHT22;7329;50.866;4.366;2022-11-22T09:11:13;19.90;99.90
14487;DHT22;7329;50.866;4.366;2022-11-22T09:13:15;19.90;99.90
14487;DHT22;7329;50.866;4.366;2022-11-22T09:15:18;19.90;99.90
14487;DHT22;7329;50.866;4.366;2022-11-22T09:17:21;20.00;99.90
14487;DHT22;7329;50.866;4.366;2022-11-22T09:19:24;20.00;99.90
14487;DHT22;7329;50.866;4.366;2022-11-22T09:21:26;20.00;99.90
14487;DHT22;7329;50.866;4.366;2022-11-22T09:23:29;20.00;99.90
14487;DHT22;7329;50.866;4.366;2022-11-22T09:25:31;20.00;99.90
14487;DHT22;7329;50.866;4.366;2022-11-22T09:27:34;20.00;99.90
14487;DHT22;7329;50.866;4.366;2022-11-22T09:29:36;20.00;99.90
14487;DHT22;7329;50.866;4.366;2022-11-22T09:31:39;20.10;99.90
14487;DHT22;7329;50.866;4.366;2022-11-22T09:33:43;20.10;99.90
14487;DHT22;7329;50.866;4.366;2022-11-22T09:35:45;20.10;99.90
14487;DHT22;7329;50.866;4.366;2022-11-22T09:37:47;20.10;99.90
14487;DHT22;7329;50.866;4.366;2022-11-22T09:39:50;20.20;99.90
14487;DHT22;7329;50.866;4.366;2022-11-22T09:42:12;20.20;99.90
14487;DHT22;7329;50.866;4.366;2022-11-22T09:44:22;20.20;99.90
14487;DHT22;7329;50.866;4.366;2022-11-22T09:46:39;20.30;99.90
14487;DHT22;7329;50.866;4.366;2022-11-22T09:49:01;20.40;99.90
14487;DHT22;7329;50.866;4.366;2022-11-22T09:51:08;20.40;99.90
14487;DHT22;7329;50.866;4.366;2022-11-22T09:53:19;20.40;99.90
14487;DHT22;7329;50.866;4.366;2022-11-22T09:55:27;20.40;99.90
14487;DHT22;7329;50.866;4.366;2022-11-22T09:57:36;20.40;99.90
14487;DHT22;7329;50.866;4.366;2022-11-22T09:59:44;20.40;99.90
14487;DHT22;7329;50.866;4.366;2022-11-22T10:01:49;20.40;99.90
14487;DHT22;7329;50.866;4.366;2022-11-22T10:04:00;20.50;99.90
14487;DHT22;7329;50.866;4.366;2022-11-22T10:06:08;20.60;99.90
14487;DHT22;7329;50.866;4.366;2022-11-22T10:08:22;20.50;99.90
14487;DHT22;7329;50.866;4.366;2022-11-22T10:10:31;20.50;99.90
14487;DHT22;7329;50.866;4.366;2022-11-22T10:12:38;20.60;99.90
14487;DHT22;7329;50.866;4.366;2022-11-22T10:14:47;20.60;99.90
14487;DHT22;7329;50.866;4.366;2022-11-22T10:16:55;20.70;99.90
14487;DHT22;7329;50.866;4.366;2022-11-22T10:19:02;20.70;99.90
14487;DHT22;7329;50.866;4.366;2022-11-22T10:21:09;20.80;99.90
14487;DHT22;7329;50.866;4.366;2022-11-22T10:23:16;20.80;99.90
14487;DHT22;7329;50.866;4.366;2022-11-22T10:25:21;20.80;99.90
14487;DHT22;7329;50.866;4.366;2022-11-22T10:27:27;20.90;99.90
14487;DHT22;7329;50.866;4.366;2022-11-22T10:29:35;20.90;99.90
14487;DHT22;7329;50.866;4.366;2022-11-22T10:31:44;20.80;99.90
14487;DHT22;7329;50.866;4.366;2022-11-22T10:33:54;20.90;99.90
14487;DHT22;7329;50.866;4.366;2022-11-22T10:36:13;20.80;99.90
14487;DHT22;7329;50.866;4.366;2022-11-22T10:41:09;20.90;99.90
14487;DHT22;7329;50.866;4.366;2022-11-22T10:43:26;20.90;99.90
14487;DHT22;7329;50.866;4.366;2022-11-22T10:45:34;20.90;99.90
14487;DHT22;7329;50.866;4.366;2022-11-22T10:47:45;20.90;99.90
14487;DHT22;7329;50.866;4.366;2022-11-22T10:49:56;20.90;99.90
14487;DHT22;7329;50.866;4.366;2022-11-22T10:52:03;21.00;99.90
14487;DHT22;7329;50.866;4.366;2022-11-22T10:54:14;21.00;99.90
14487;DHT22;7329;50.866;4.366;2022-11-22T10:56:29;21.00;99.90
14487;DHT22;7329;50.866;4.366;2022-11-22T10:58:58;21.00;99.90
14487;DHT22;7329;50.866;4.366;2022-11-22T11:01:21;21.00;99.90
14487;DHT22;7329;50.866;4.366;2022-11-22T11:06:09;21.00;99.90
14487;DHT22;7329;50.866;4.366;2022-11-22T11:09:46;21.10;99.90
14487;DHT22;7329;50.866;4.366;2022-11-22T11:11:50;21.10;99.90
14487;DHT22;7329;50.866;4.366;2022-11-22T11:13:55;21.10;99.90
14487;DHT22;7329;50.866;4.366;2022-11-22T11:16:02;21.10;99.90
14487;DHT22;7329;50.866;4.366;2022-11-22T11:18:10;21.10;99.90
14487;DHT22;7329;50.866;4.366;2022-11-22T11:20:20;21.10;99.90
14487;DHT22;7329;50.866;4.366;2022-11-22T11:22:25;21.20;99.90
14487;DHT22;7329;50.866;4.366;2022-11-22T11:24:31;21.20;99.90
14487;DHT22;7329;50.866;4.366;2022-11-22T11:26:35;21.20;99.90
14487;DHT22;7329;50.866;4.366;2022-11-22T11:28:40;21.20;99.90
14487;DHT22;7329;50.866;4.366;2022-11-22T11:33:46;21.20;99.90
14487;DHT22;7329;50.866;4.366;2022-11-22T11:35:49;21.30;99.90
14487;DHT22;7329;50.866;4.366;2022-11-22T11:37:55;21.40;99.90
14487;DHT22;7329;50.866;4.366;2022-11-22T11:39:57;21.40;99.90
14487;DHT22;7329;50.866;4.366;2022-11-22T11:42:29;21.40;99.90
14487;DHT22;7329;50.866;4.366;2022-11-22T11:44:33;21.40;99.90
14487;DHT22;7329;50.866;4.366;2022-11-22T11:46:44;21.40;99.90
14487;DHT22;7329;50.866;4.366;2022-11-22T11:48:46;21.40;99.90
14487;DHT22;7329;50.866;4.366;2022-11-22T11:50:49;21.40;99.90
14487;DHT22;7329;50.866;4.366;2022-11-22T11:52:54;21.40;99.90
14487;DHT22;7329;50.866;4.366;2022-11-22T11:54:59;21.50;99.90
14487;DHT22;7329;50.866;4.366;2022-11-22T11:57:02;21.40;99.90
14487;DHT22;7329;50.866;4.366;2022-11-22T11:59:11;21.40;99.90
14487;DHT22;7329;50.866;4.366;2022-11-22T12:01:17;21.50;99.90
14487;DHT22;7329;50.866;4.366;2022-11-22T12:05:22;21.50;99.90
14487;DHT22;7329;50.866;4.366;2022-11-22T12:06:18;21.50;99.90
14487;DHT22;7329;50.866;4.366;2022-11-22T12:08:29;21.60;99.90
14487;DHT22;7329;50.866;4.366;2022-11-22T12:10:40;21.60;99.90
14487;DHT22;7329;50.866;4.366;2022-11-22T12:13:28;21.60;99.90
14487;DHT22;7329;50.866;4.366;2022-11-22T12:18:40;21.60;99.90
14487;DHT22;7329;50.866;4.366;2022-11-22T12:20:50;21.70;99.90
14487;DHT22;7329;50.866;4.366;2022-11-22T12:23:04;21.70;99.90
14487;DHT22;7329;50.866;4.366;2022-11-22T12:25:20;21.80;99.90
14487;DHT22;7329;50.866;4.366;2022-11-22T12:27:23;21.80;99.90
14487;DHT22;7329;50.866;4.366;2022-11-22T12:29:26;21.80;99.90
14487;DHT22;7329;50.866;4.366;2022-11-22T12:31:35;21.90;99.90
14487;DHT22;7329;50.866;4.366;2022-11-22T12:33:42;21.80;99.90
14487;DHT22;7329;50.866;4.366;2022-11-22T12:35:45;21.80;99.90
14487;DHT22;7329;50.866;4.366;2022-11-22T12:37:51;21.90;99.90
14487;DHT22;7329;50.866;4.366;2022-11-22T12:39:57;21.90;99.90
14487;DHT22;7329;50.866;4.366;2022-11-22T12:42:06;21.90;99.90
14487;DHT22;7329;50.866;4.366;2022-11-22T12:44:18;22.00;99.90
14487;DHT22;7329;50.866;4.366;2022-11-22T12:46:29;22.00;99.90
14487;DHT22;7329;50.866;4.366;2022-11-22T12:48:35;22.00;99.90
14487;DHT22;7329;50.866;4.366;2022-11-22T12:50:52;22.00;99.90
14487;DHT22;7329;50.866;4.366;2022-11-22T12:53:10;22.00;99.90
14487;DHT22;7329;50.866;4.366;2022-11-22T12:55:16;22.00;99.90
14487;DHT22;7329;50.866;4.366;2022-11-22T12:57:23;22.00;99.90
14487;DHT22;7329;50.866;4.366;2022-11-22T12:59:31;22.00;99.90
14487;DHT22;7329;50.866;4.366;2022-11-22T13:01:41;22.10;99.90
14487;DHT22;7329;50.866;4.366;2022-11-22T13:03:51;22.10;99.90
14487;DHT22;7329;50.866;4.366;2022-11-22T13:05:59;22.00;99.90
14487;DHT22;7329;50.866;4.366;2022-11-22T13:08:10;22.00;99.90
14487;DHT22;7329;50.866;4.366;2022-11-22T13:10:25;22.10;99.90
14487;DHT22;7329;50.866;4.366;2022-11-22T13:12:32;22.00;99.90
14487;DHT22;7329;50.866;4.366;2022-11-22T13:14:37;21.90;99.90
14487;DHT22;7329;50.866;4.366;2022-11-22T13:16:40;21.90;99.90
14487;DHT22;7329;50.866;4.366;2022-11-22T13:18:47;21.90;99.90
14487;DHT22;7329;50.866;4.366;2022-11-22T13:20:59;22.00;99.90
14487;DHT22;7329;50.866;4.366;2022-11-22T13:23:18;22.00;99.90
14487;DHT22;7329;50.866;4.366;2022-11-22T13:27:51;22.00;99.90
14487;DHT22;7329;50.866;4.366;2022-11-22T13:29:57;22.00;99.90
14487;DHT22;7329;50.866;4.366;2022-11-22T13:32:05;22.10;99.90
14487;DHT22;7329;50.866;4.366;2022-11-22T13:34:21;22.10;99.90
14487;DHT22;7329;50.866;4.366;2022-11-22T13:36:38;22.10;99.90
14487;DHT22;7329;50.866;4.366;2022-11-22T13:38:42;22.10;99.90